Time;durP1;ratioP1;P1;durP2;ratioP2;P2;SDS_P1;SDS_P2;PMS_P1;PMS_P2;Temp;Humidity;BMP_temperature;BMP_pressure;BME280_temperature;BME280_humidity;BME280_pressure;Samples;Min_cycle;Max_cycle;Signal;HPM_P1;HPM_P2
2021/04/21 00:02:15;;;;;;;8.73;7.93;;;11.30;63.70;;;;;;5044858;28;20196;-86
2021/04/21 00:04:44;;;;;;;8.50;7.70;;;11.20;63.40;;;;;;5044257;28;20218;-87
2021/04/21 00:07:10;;;;;;;8.10;7.47;;;11.30;63.70;;;;;;5044438;28;20207;-86
2021/04/21 00:09:36;;;;;;;7.53;6.93;;;11.30;63.30;;;;;;5045921;28;20214;-86
2021/04/21 00:12:02;;;;;;;8.80;8.00;;;11.20;63.60;;;;;;5043700;28;20186;-86
2021/04/21 00:14:28;;;;;;;8.17;7.47;;;11.10;63.50;;;;;;5043405;28;20204;-85
2021/04/21 00:16:59;;;;;;;8.90;8.10;;;11.10;63.60;;;;;;5044851;28;20225;-87
2021/04/21 00:19:26;;;;;;;8.27;7.47;;;11.20;63.70;;;;;;5044766;28;20186;-87
2021/04/21 00:21:53;;;;;;;8.97;8.17;;;11.20;63.50;;;;;;5046249;28;20189;-85
2021/04/21 00:24:19;;;;;;;8.73;7.83;;;11.10;63.70;;;;;;5045931;28;20185;-85
2021/04/21 00:26:47;;;;;;;8.70;7.80;;;11.00;64.20;;;;;;5046172;28;20334;-85
2021/04/21 00:29:15;;;;;;;8.00;7.33;;;11.00;64.20;;;;;;5041484;28;20208;-87
2021/04/21 00:31:44;;;;;;;8.83;8.10;;;11.00;63.90;;;;;;5042571;28;20208;-85
2021/04/21 00:34:12;;;;;;;9.20;8.40;;;10.90;64.40;;;;;;5043036;28;20186;-85
2021/04/21 00:36:41;;;;;;;9.60;8.83;;;10.90;64.90;;;;;;5043409;28;20197;-86
2021/04/21 00:39:09;;;;;;;10.27;9.37;;;10.40;67.50;;;;;;5026315;28;20194;-89
2021/04/21 00:41:56;;;;;;;9.17;8.30;;;10.50;67.10;;;;;;5045664;28;20178;-86
2021/04/21 00:44:31;;;;;;;9.47;8.67;;;10.60;66.50;;;;;;5042853;28;20178;-85
2021/04/21 00:47:09;;;;;;;9.47;8.67;;;10.60;66.00;;;;;;5041645;28;20205;-85
2021/04/21 00:50:01;;;;;;;9.73;8.73;;;10.60;65.60;;;;;;5043189;28;20247;-85
2021/04/21 00:52:47;;;;;;;9.23;8.43;;;10.60;65.30;;;;;;5044806;28;20185;-85
2021/04/21 00:55:31;;;;;;;10.07;9.17;;;10.70;65.40;;;;;;5044302;28;20240;-85
2021/04/21 00:58:08;;;;;;;9.27;8.37;;;10.70;65.20;;;;;;5043188;28;20169;-86
2021/04/21 01:00:37;;;;;;;9.17;8.47;;;10.80;64.90;;;;;;5045639;28;20215;-88
2021/04/21 01:03:12;;;;;;;10.23;8.50;;;10.60;65.10;;;;;;5043330;28;20181;-87
2021/04/21 01:05:41;;;;;;;8.83;8.10;;;10.60;65.70;;;;;;5045070;28;20256;-85
2021/04/21 01:08:11;;;;;;;8.43;7.63;;;10.60;66.40;;;;;;5042503;28;20197;-87
2021/04/21 01:11:02;;;;;;;9.40;8.50;;;10.60;65.00;;;;;;5044598;28;20185;-87
2021/04/21 01:13:36;;;;;;;9.53;8.63;;;10.60;64.80;;;;;;5044341;28;20196;-88
2021/04/21 01:16:05;;;;;;;9.40;8.57;;;10.40;65.40;;;;;;5042819;28;20199;-85
2021/04/21 01:18:32;;;;;;;9.03;8.23;;;10.40;65.20;;;;;;5044156;28;20319;-86
2021/04/21 01:21:07;;;;;;;9.23;8.43;;;10.40;65.20;;;;;;5042689;28;20185;-85
2021/04/21 01:23:45;;;;;;;9.93;9.03;;;10.50;64.70;;;;;;5044221;28;20172;-85
2021/04/21 01:26:31;;;;;;;9.73;8.77;;;10.40;64.90;;;;;;5044614;28;20204;-89
2021/04/21 01:29:00;;;;;;;9.10;8.30;;;10.40;65.60;;;;;;5044541;28;20717;-87
2021/04/21 01:31:29;;;;;;;9.90;9.00;;;10.40;65.30;;;;;;5046845;28;20173;-87
2021/04/21 01:33:57;;;;;;;9.43;8.63;;;10.40;64.70;;;;;;5048043;28;20286;-87
2021/04/21 01:36:25;;;;;;;9.23;8.43;;;10.30;65.40;;;;;;5041158;28;20207;-88
2021/04/21 01:38:53;;;;;;;9.63;8.63;;;10.30;65.50;;;;;;5041760;28;20234;-84
2021/04/21 01:41:24;;;;;;;9.77;8.87;;;10.30;65.30;;;;;;5042536;28;20173;-87
2021/04/21 01:43:59;;;;;;;10.47;9.47;;;10.30;65.20;;;;;;5042077;28;20187;-85
2021/04/21 01:46:27;;;;;;;9.10;8.30;;;10.20;65.20;;;;;;5040858;28;20227;-86
2021/04/21 01:49:05;;;;;;;9.20;8.37;;;10.00;65.30;;;;;;5041656;28;20201;-87
2021/04/21 01:51:33;;;;;;;9.80;8.90;;;9.70;66.10;;;;;;5043094;28;20165;-86
2021/04/21 01:54:09;;;;;;;9.87;8.97;;;9.70;67.00;;;;;;5042641;28;20181;-87
2021/04/21 01:56:55;;;;;;;9.53;8.57;;;9.80;68.60;;;;;;5042015;28;20192;-86
2021/04/21 01:59:30;;;;;;;10.57;9.67;;;9.70;69.30;;;;;;5041251;28;20834;-87
2021/04/21 02:02:32;;;;;;;10.83;9.93;;;9.40;70.40;;;;;;5042812;28;20276;-86
2021/04/21 02:05:05;;;;;;;10.93;9.90;;;9.00;72.70;;;;;;5022879;28;20169;-88
2021/04/21 02:07:55;;;;;;;9.47;8.67;;;9.10;72.80;;;;;;5041015;28;20181;-86
2021/04/21 02:10:27;;;;;;;9.87;8.80;;;9.30;71.70;;;;;;5042421;28;20247;-85
2021/04/21 02:13:09;;;;;;;10.40;9.40;;;9.40;70.90;;;;;;5041395;28;20185;-86
2021/04/21 02:16:01;;;;;;;10.00;9.00;;;9.40;68.90;;;;;;5042473;28;20677;-86
2021/04/21 02:18:48;;;;;;;9.77;8.87;;;9.60;68.30;;;;;;5042684;28;20177;-87
2021/04/21 02:21:46;;;;;;;9.43;8.43;;;9.60;67.40;;;;;;5042254;28;20214;-87
2021/04/21 02:24:23;;;;;;;9.17;8.27;;;9.60;67.60;;;;;;5042143;28;20181;-92
2021/04/21 02:26:57;;;;;;;9.43;8.63;;;9.60;67.20;;;;;;5042876;28;20227;-86
2021/04/21 02:29:32;;;;;;;9.40;8.47;;;9.50;67.40;;;;;;5043749;28;20208;-88
2021/04/21 02:32:06;;;;;;;8.83;8.03;;;9.50;67.60;;;;;;5040797;28;20164;-87
2021/04/21 02:35:16;;;;;;;9.20;8.30;;;9.50;67.60;;;;;;5040580;28;20181;-89
2021/04/21 02:37:58;;;;;;;9.47;8.57;;;9.40;68.10;;;;;;5039445;28;20192;-86
2021/04/21 02:40:44;;;;;;;8.97;8.20;;;9.40;68.80;;;;;;5039031;28;20180;-85
2021/04/21 02:43:44;;;;;;;8.67;7.97;;;9.30;67.80;;;;;;5041300;28;20710;-87
2021/04/21 02:46:25;;;;;;;9.57;8.60;;;9.30;67.10;;;;;;5041548;28;20207;-86
2021/04/21 02:49:22;;;;;;;9.13;8.23;;;9.30;67.40;;;;;;5040621;28;20217;-88
2021/04/21 02:52:09;;;;;;;9.70;8.90;;;9.40;67.40;;;;;;5042085;28;20526;-87
2021/04/21 02:55:10;;;;;;;8.50;7.70;;;9.50;66.90;;;;;;5041608;28;20161;-88
2021/04/21 02:58:01;;;;;;;9.47;8.50;;;9.40;66.80;;;;;;5022346;28;20260;-86
2021/04/21 03:00:49;;;;;;;9.20;8.37;;;9.40;66.80;;;;;;5022933;28;20312;-86
2021/04/21 03:03:34;;;;;;;9.87;8.93;;;9.40;66.70;;;;;;5030078;28;20193;-86
2021/04/21 03:06:10;;;;;;;9.80;8.90;;;9.20;67.90;;;;;;5040216;28;20228;-86
2021/04/21 03:08:47;;;;;;;9.43;8.60;;;9.20;68.00;;;;;;5025340;28;20204;-87
2021/04/21 03:11:29;;;;;;;9.37;8.47;;;9.30;68.10;;;;;;5042663;28;20185;-89
2021/04/21 03:14:06;;;;;;;9.47;8.57;;;9.40;67.90;;;;;;5043175;28;20177;-87
2021/04/21 03:16:34;;;;;;;10.27;9.23;;;9.40;67.90;;;;;;5042293;28;20189;-86
2021/04/21 03:19:05;;;;;;;9.83;8.83;;;9.40;67.90;;;;;;5044900;28;20173;-86
2021/04/21 03:21:35;;;;;;;9.67;8.77;;;9.30;66.80;;;;;;5042583;28;20201;-87
2021/04/21 03:24:23;;;;;;;9.90;9.00;;;9.00;67.80;;;;;;5043816;28;20181;-85
2021/04/21 03:26:52;;;;;;;9.67;8.77;;;8.50;69.60;;;;;;5044158;28;20227;-84
2021/04/21 03:29:40;;;;;;;9.40;8.60;;;8.10;72.30;;;;;;5044120;28;20208;-87
2021/04/21 03:32:18;;;;;;;10.17;9.17;;;8.00;74.50;;;;;;5044786;28;20176;-88
2021/04/21 03:34:46;;;;;;;9.60;8.80;;;8.10;74.30;;;;;;5044785;28;20634;-86
2021/04/21 03:37:30;;;;;;;10.50;9.40;;;8.10;72.20;;;;;;5049147;28;20189;-87
2021/04/21 03:39:56;;;;;;;10.47;8.73;;;8.20;71.80;;;;;;5044021;28;20188;-86
2021/04/21 03:42:22;;;;;;;9.33;8.17;;;8.20;71.50;;;;;;5044390;28;20790;-86
2021/04/21 03:44:48;;;;;;;10.53;9.53;;;8.30;71.20;;;;;;5046639;28;20185;-90
2021/04/21 03:47:14;;;;;;;10.13;9.23;;;8.30;70.80;;;;;;5057670;28;20216;-88
2021/04/21 03:49:43;;;;;;;11.03;8.53;;;8.40;70.50;;;;;;5057550;28;20268;-89
2021/04/21 03:52:13;;;;;;;10.20;9.27;;;8.30;71.10;;;;;;5057762;28;20173;-87
2021/04/21 03:54:41;;;;;;;11.33;9.40;;;8.30;71.90;;;;;;5057866;28;20178;-88
2021/04/21 03:57:08;;;;;;;9.77;8.87;;;8.20;70.70;;;;;;5054826;28;20220;-88
2021/04/21 03:59:36;;;;;;;10.03;9.13;;;8.00;71.70;;;;;;5046188;28;20197;-86
2021/04/21 04:02:07;;;;;;;9.07;8.27;;;8.00;71.50;;;;;;5046662;28;20189;-86
2021/04/21 04:04:38;;;;;;;9.70;8.33;;;8.10;71.30;;;;;;5045614;28;20177;-86
2021/04/21 04:07:09;;;;;;;9.47;8.57;;;8.20;71.40;;;;;;5044485;28;20209;-85
2021/04/21 04:09:37;;;;;;;8.90;8.03;;;8.30;70.40;;;;;;5044643;28;20204;-85
2021/04/21 04:12:05;;;;;;;9.13;8.23;;;8.30;70.00;;;;;;5047359;28;20242;-87
2021/04/21 04:14:33;;;;;;;8.43;7.63;;;8.30;70.00;;;;;;5054754;28;20180;-85
2021/04/21 04:17:01;;;;;;;13.80;8.93;;;8.40;69.10;;;;;;5056617;28;20209;-86
2021/04/21 04:19:28;;;;;;;10.40;9.40;;;8.40;68.90;;;;;;5055620;28;20214;-89
2021/04/21 04:22:02;;;;;;;9.77;8.83;;;8.40;68.70;;;;;;5051442;28;20185;-85
2021/04/21 04:24:35;;;;;;;8.90;8.20;;;8.40;68.20;;;;;;5042623;28;20207;-87
2021/04/21 04:27:01;;;;;;;10.60;9.33;;;8.50;68.40;;;;;;5044983;28;20239;-86
2021/04/21 04:29:27;;;;;;;10.00;9.00;;;8.40;68.30;;;;;;5045102;28;20217;-88
2021/04/21 04:31:53;;;;;;;9.40;8.50;;;8.50;68.10;;;;;;5044185;28;20308;-87
2021/04/21 04:34:21;;;;;;;9.37;8.47;;;8.50;68.20;;;;;;5046807;28;20181;-86
2021/04/21 04:36:48;;;;;;;9.47;8.47;;;8.40;68.20;;;;;;5042726;28;20266;-88
2021/04/21 04:39:14;;;;;;;9.00;7.97;;;8.30;68.20;;;;;;5044019;28;20879;-88
2021/04/21 04:41:41;;;;;;;9.50;8.53;;;8.30;68.10;;;;;;5040714;28;20188;-88
2021/04/21 04:44:07;;;;;;;10.13;9.13;;;8.40;68.00;;;;;;5041444;28;20213;-89
2021/04/21 04:46:39;;;;;;;11.93;8.47;;;8.10;68.30;;;;;;5044813;28;20204;-87
2021/04/21 04:49:10;;;;;;;8.80;7.90;;;7.90;70.20;;;;;;5037949;28;20185;-88
2021/04/21 04:51:43;;;;;;;9.97;8.80;;;8.00;70.90;;;;;;5035331;28;20181;-88
2021/04/21 04:54:11;;;;;;;8.43;7.60;;;8.10;69.50;;;;;;5037034;28;20177;-88
2021/04/21 04:56:37;;;;;;;8.90;8.13;;;8.10;69.10;;;;;;5035382;28;20215;-88
2021/04/21 04:59:05;;;;;;;8.70;7.90;;;8.20;68.60;;;;;;5024745;28;20204;-88
2021/04/21 05:01:46;;;;;;;8.63;7.67;;;8.20;68.80;;;;;;5036569;28;20220;-88
2021/04/21 05:04:14;;;;;;;9.57;8.30;;;8.20;68.80;;;;;;5037096;28;20238;-86
2021/04/21 05:06:48;;;;;;;12.33;9.10;;;8.20;68.90;;;;;;5032773;28;20601;-85
2021/04/21 05:09:17;;;;;;;11.87;8.63;;;8.30;68.50;;;;;;5034139;28;20750;-86
2021/04/21 05:11:46;;;;;;;12.03;9.13;;;8.30;69.00;;;;;;5036234;28;20327;-87
2021/04/21 05:14:16;;;;;;;9.83;8.87;;;8.30;68.90;;;;;;5034712;28;20181;-86
2021/04/21 05:16:57;;;;;;;9.13;8.13;;;8.30;68.60;;;;;;5036700;28;20207;-87
2021/04/21 05:20:08;;;;;;;8.80;7.90;;;8.30;68.70;;;;;;5037680;28;20681;-89
2021/04/21 05:23:02;;;;;;;10.20;8.73;;;8.40;68.70;;;;;;5018512;28;20243;-88
2021/04/21 05:25:49;;;;;;;11.27;8.83;;;8.40;68.80;;;;;;5034868;28;20205;-89
2021/04/21 05:28:21;;;;;;;10.77;8.30;;;8.50;68.50;;;;;;5036634;28;20193;-89
2021/04/21 05:31:11;;;;;;;14.03;8.80;;;8.50;68.60;;;;;;5038015;28;20678;-88
2021/04/21 05:34:15;;;;;;;11.23;8.90;;;8.50;68.50;;;;;;5037782;28;20177;-87
2021/04/21 05:36:53;;;;;;;14.93;8.77;;;8.60;68.70;;;;;;5036531;28;20971;-90
2021/04/21 05:39:55;;;;;;;10.60;8.07;;;8.60;68.60;;;;;;5038863;28;20165;-89
2021/04/21 05:42:59;;;;;;;13.63;8.80;;;8.70;68.80;;;;;;5039149;28;20180;-89
2021/04/21 05:46:02;;;;;;;10.90;9.63;;;8.70;69.10;;;;;;5037961;28;20699;-89
2021/04/21 05:49:05;;;;;;;11.73;9.20;;;8.70;69.00;;;;;;5039479;28;20538;-88
2021/04/21 05:51:55;;;;;;;10.70;9.60;;;8.80;69.40;;;;;;5024286;28;20192;-88
2021/04/21 05:54:39;;;;;;;10.27;9.23;;;8.70;69.90;;;;;;5037940;28;20192;-89
2021/04/21 05:57:29;;;;;;;10.50;9.50;;;8.60;71.00;;;;;;5036112;28;20215;-87
2021/04/21 06:00:35;;;;;;;10.67;9.67;;;8.60;72.00;;;;;;5039740;28;20200;-86
2021/04/21 06:03:02;;;;;;;10.70;9.70;;;8.60;73.00;;;;;;5039192;28;20173;-86
2021/04/21 06:05:28;;;;;;;11.17;10.07;;;8.70;72.90;;;;;;5039070;28;20208;-88
2021/04/21 06:07:54;;;;;;;9.73;8.90;;;8.70;73.10;;;;;;5039250;28;20219;-88
2021/04/21 06:10:25;;;;;;;11.03;9.87;;;8.80;73.10;;;;;;5038747;28;20242;-88
2021/04/21 06:12:54;;;;;;;10.00;9.10;;;8.90;73.20;;;;;;5038433;28;20177;-86
2021/04/21 06:15:25;;;;;;;10.83;9.83;;;9.00;72.90;;;;;;5039467;28;20193;-87
2021/04/21 06:17:56;;;;;;;10.63;9.63;;;9.10;72.50;;;;;;5037612;28;20216;-87
2021/04/21 06:20:41;;;;;;;11.53;10.43;;;9.30;72.50;;;;;;5037833;28;20304;-86
2021/04/21 06:23:29;;;;;;;13.20;11.73;;;9.30;73.00;;;;;;5039280;28;20292;-88
2021/04/21 06:25:58;;;;;;;15.43;11.83;;;9.30;73.40;;;;;;5035377;28;20716;-87
2021/04/21 06:28:24;;;;;;;11.60;10.50;;;9.40;73.30;;;;;;5038586;28;20205;-87
2021/04/21 06:31:02;;;;;;;14.43;12.20;;;9.50;73.10;;;;;;5038859;28;20180;-87
2021/04/21 06:33:34;;;;;;;14.10;12.20;;;9.60;72.90;;;;;;5034883;28;20222;-86
2021/04/21 06:36:01;;;;;;;16.53;14.03;;;9.50;73.20;;;;;;5045941;28;20224;-87
2021/04/21 06:38:28;;;;;;;19.43;14.83;;;9.50;73.30;;;;;;5034738;28;20211;-89
2021/04/21 06:40:54;;;;;;;17.03;12.83;;;9.40;74.00;;;;;;5017940;28;20247;-87
2021/04/21 06:43:38;;;;;;;17.37;13.67;;;9.40;73.80;;;;;;5035891;28;20197;-87
2021/04/21 06:46:09;;;;;;;14.27;12.83;;;9.50;73.70;;;;;;5034507;28;20612;-86
2021/04/21 06:48:37;;;;;;;14.23;12.77;;;9.60;73.20;;;;;;5029273;28;20220;-86
2021/04/21 06:51:12;;;;;;;14.10;12.70;;;9.60;73.60;;;;;;5039739;28;20193;-88
2021/04/21 06:53:39;;;;;;;15.73;12.93;;;9.60;74.40;;;;;;5014832;28;20188;-86
2021/04/21 06:56:06;;;;;;;13.33;12.23;;;9.70;75.30;;;;;;5029785;28;20215;-86
2021/04/21 06:58:33;;;;;;;16.83;12.50;;;9.80;74.20;;;;;;5031719;28;20193;-88
2021/04/21 07:01:15;;;;;;;16.47;12.07;;;9.80;73.60;;;;;;5031475;28;20200;-87
2021/04/21 07:03:43;;;;;;;13.03;11.73;;;9.90;73.80;;;;;;5033774;28;20181;-88
2021/04/21 07:06:09;;;;;;;13.90;12.43;;;10.10;72.70;;;;;;5035815;28;20875;-88
2021/04/21 07:08:39;;;;;;;15.37;13.30;;;10.20;71.90;;;;;;5034024;28;20225;-85
2021/04/21 07:11:08;;;;;;;15.87;13.57;;;10.40;72.50;;;;;;5035451;28;20235;-87
2021/04/21 07:13:44;;;;;;;15.60;13.93;;;10.50;72.20;;;;;;5035384;28;20257;-88
2021/04/21 07:16:29;;;;;;;15.47;13.97;;;10.40;73.10;;;;;;5032238;28;20574;-88
2021/04/21 07:19:06;;;;;;;13.83;12.53;;;10.50;73.90;;;;;;5032930;28;20199;-88
2021/04/21 07:21:33;;;;;;;15.07;13.53;;;10.50;73.60;;;;;;5035495;28;20185;-90
2021/04/21 07:24:01;;;;;;;15.07;13.30;;;10.60;74.10;;;;;;5037837;28;20223;-87
2021/04/21 07:26:33;;;;;;;14.67;13.20;;;10.50;74.70;;;;;;5037233;28;20688;-88
2021/04/21 07:28:59;;;;;;;15.37;13.87;;;10.50;74.70;;;;;;5036923;28;20228;-87
2021/04/21 07:31:25;;;;;;;16.50;14.80;;;10.60;74.30;;;;;;5034909;28;20196;-87
2021/04/21 07:33:51;;;;;;;16.10;14.37;;;10.70;74.40;;;;;;5039540;28;20193;-88
2021/04/21 07:36:23;;;;;;;20.50;14.27;;;10.70;74.60;;;;;;5036876;28;20201;-89
2021/04/21 07:39:05;;;;;;;18.30;16.73;;;10.90;74.70;;;;;;5037983;28;20680;-87
2021/04/21 07:41:44;;;;;;;15.53;14.07;;;10.90;74.70;;;;;;5033288;28;20205;-88
2021/04/21 07:44:30;;;;;;;19.30;14.20;;;10.90;74.90;;;;;;5038104;28;20233;-86
2021/04/21 07:47:05;;;;;;;16.07;14.57;;;11.30;73.30;;;;;;5034389;28;20271;-88
2021/04/21 07:49:32;;;;;;;17.47;14.90;;;11.20;73.80;;;;;;5034561;28;20210;-87
2021/04/21 07:51:58;;;;;;;16.00;14.30;;;11.40;72.90;;;;;;5036674;28;20189;-89
2021/04/21 07:54:26;;;;;;;15.87;14.47;;;11.60;71.50;;;;;;5036986;28;20208;-86
2021/04/21 07:57:16;;;;;;;15.00;13.63;;;11.60;71.30;;;;;;5036367;28;20236;-88
2021/04/21 07:59:43;;;;;;;16.37;14.70;;;11.70;70.10;;;;;;5033285;28;20214;-87
2021/04/21 08:02:11;;;;;;;17.43;15.77;;;11.70;71.00;;;;;;5037349;28;20202;-87
2021/04/21 08:04:55;;;;;;;17.60;15.97;;;12.00;70.10;;;;;;5036095;28;20245;-87
2021/04/21 08:07:30;;;;;;;18.07;16.23;;;12.20;68.50;;;;;;5036386;28;20208;-89
2021/04/21 08:09:56;;;;;;;16.80;15.20;;;12.30;68.50;;;;;;5040167;28;20282;-88
2021/04/21 08:12:25;;;;;;;18.47;15.37;;;12.40;68.10;;;;;;5039014;28;20664;-86
2021/04/21 08:14:56;;;;;;;17.93;16.13;;;12.50;67.10;;;;;;5039904;28;20186;-88
2021/04/21 08:17:22;;;;;;;17.57;15.87;;;12.40;68.10;;;;;;5038873;28;20258;-87
2021/04/21 08:19:54;;;;;;;18.23;16.53;;;12.50;66.90;;;;;;5039015;28;20595;-87
2021/04/21 08:22:28;;;;;;;19.10;17.23;;;12.60;66.20;;;;;;5037736;28;20551;-88
2021/04/21 08:24:55;;;;;;;18.20;16.40;;;12.80;65.60;;;;;;5038730;28;20205;-87
2021/04/21 08:27:22;;;;;;;18.23;16.37;;;12.80;66.80;;;;;;5039000;28;20215;-87
2021/04/21 08:29:50;;;;;;;18.37;16.53;;;13.20;65.10;;;;;;5038815;28;20522;-87
2021/04/21 08:32:22;;;;;;;19.03;16.10;;;13.50;62.90;;;;;;5033445;28;20190;-88
2021/04/21 08:34:49;;;;;;;18.27;16.37;;;13.60;62.10;;;;;;5034426;28;20207;-87
2021/04/21 08:37:14;;;;;;;16.90;15.40;;;13.80;61.80;;;;;;5038674;28;20213;-88
2021/04/21 08:39:41;;;;;;;19.73;15.47;;;13.80;63.10;;;;;;5032619;28;20514;-86
2021/04/21 08:42:08;;;;;;;17.20;15.50;;;13.90;61.40;;;;;;5030608;28;20204;-85
2021/04/21 08:44:40;;;;;;;18.03;16.23;;;13.80;60.30;;;;;;5032379;28;20193;-86
2021/04/21 08:47:14;;;;;;;17.27;15.57;;;14.10;59.50;;;;;;5033889;28;20271;-86
2021/04/21 08:49:40;;;;;;;16.90;15.10;;;14.30;58.40;;;;;;5034336;28;20214;-87
2021/04/21 08:52:07;;;;;;;17.87;16.17;;;14.40;58.40;;;;;;5037165;28;20260;-87
2021/04/21 08:54:33;;;;;;;18.10;16.30;;;14.50;56.80;;;;;;5036716;28;20270;-86
2021/04/21 08:57:00;;;;;;;18.63;16.03;;;14.50;57.40;;;;;;5037082;28;20402;-86
2021/04/21 08:59:26;;;;;;;17.20;15.60;;;14.80;56.70;;;;;;5038803;28;20206;-87
2021/04/21 09:01:52;;;;;;;16.73;15.10;;;15.00;56.10;;;;;;5039465;28;20185;-87
2021/04/21 09:04:18;;;;;;;19.60;17.60;;;15.10;57.00;;;;;;5021618;28;20310;-86
2021/04/21 09:06:48;;;;;;;17.53;15.90;;;15.20;57.20;;;;;;5038673;28;20226;-86
2021/04/21 09:09:16;;;;;;;18.00;16.20;;;15.20;55.90;;;;;;5038358;28;20211;-85
2021/04/21 09:11:42;;;;;;;18.97;16.97;;;15.60;55.80;;;;;;5022527;28;20253;-85
2021/04/21 09:14:08;;;;;;;19.47;15.83;;;15.80;54.30;;;;;;5039559;28;20230;-86
2021/04/21 09:16:34;;;;;;;18.83;16.93;;;15.90;52.80;;;;;;5037707;28;20214;-86
2021/04/21 09:19:08;;;;;;;17.77;15.97;;;16.00;53.80;;;;;;5039268;28;20198;-87
2021/04/21 09:21:34;;;;;;;17.70;16.10;;;16.20;52.90;;;;;;5036186;28;20208;-85
2021/04/21 09:23:59;;;;;;;18.07;16.23;;;16.30;53.40;;;;;;5040247;28;20192;-86
2021/04/21 09:26:31;;;;;;;18.20;16.20;;;16.50;53.40;;;;;;5040615;28;20216;-86
2021/04/21 09:28:57;;;;;;;16.77;15.13;;;16.70;52.70;;;;;;5039296;28;20204;-87
2021/04/21 09:31:25;;;;;;;18.90;17.00;;;16.70;51.90;;;;;;5037894;28;20200;-85
2021/04/21 09:34:15;;;;;;;19.30;17.50;;;17.00;51.20;;;;;;5040481;28;20203;-87
2021/04/21 09:36:46;;;;;;;17.90;16.17;;;16.90;50.90;;;;;;5027360;28;20232;-86
2021/04/21 09:39:15;;;;;;;18.93;17.17;;;17.20;50.80;;;;;;5038371;28;21025;-86
2021/04/21 09:41:42;;;;;;;20.07;18.17;;;17.20;50.90;;;;;;5040295;28;20186;-86
2021/04/21 09:44:24;;;;;;;19.63;17.73;;;17.00;50.00;;;;;;5040026;28;20191;-86
2021/04/21 09:46:50;;;;;;;21.13;17.20;;;17.20;51.60;;;;;;5034026;28;20208;-88
2021/04/21 09:49:40;;;;;;;18.17;16.37;;;17.50;49.00;;;;;;5032547;28;20208;-86
2021/04/21 09:52:11;;;;;;;17.70;15.97;;;17.80;48.90;;;;;;5038908;28;20265;-86
2021/04/21 09:54:41;;;;;;;16.97;15.17;;;17.90;48.50;;;;;;5037047;28;20295;-85
2021/04/21 09:57:14;;;;;;;16.60;15.03;;;18.00;45.10;;;;;;5039660;28;20232;-87
2021/04/21 09:59:41;;;;;;;16.07;14.37;;;18.20;43.70;;;;;;5036164;28;20205;-86
2021/04/21 10:02:36;;;;;;;14.70;13.40;;;18.40;43.50;;;;;;5038585;28;20244;-86
2021/04/21 10:05:23;;;;;;;15.52;14.13;;;18.60;43.70;;;;;;5031014;28;20479;-86
2021/04/21 10:08:27;;;;;;;16.73;14.50;;;18.50;41.90;;;;;;5035907;28;20198;-86
2021/04/21 10:11:01;;;;;;;15.52;14.00;;;18.70;41.50;;;;;;5037018;28;20576;-86
2021/04/21 10:13:39;;;;;;;16.70;13.73;;;18.70;42.50;;;;;;5035996;28;20270;-86
2021/04/21 10:16:06;;;;;;;14.63;13.32;;;19.10;41.40;;;;;;5034522;28;20215;-86
2021/04/21 10:18:32;;;;;;;14.38;13.00;;;19.30;40.40;;;;;;5018536;28;20241;-87
2021/04/21 10:20:58;;;;;;;15.90;14.32;;;19.70;39.50;;;;;;5034939;28;20200;-86
2021/04/21 10:23:24;;;;;;;14.60;13.10;;;20.00;38.20;;;;;;5033747;28;20200;-87
2021/04/21 10:25:50;;;;;;;15.57;13.63;;;19.90;38.90;;;;;;5029712;28;20944;-88
2021/04/21 10:28:16;;;;;;;14.82;13.52;;;19.80;39.10;;;;;;5028370;28;20209;-88
2021/04/21 10:30:41;;;;;;;14.85;13.45;;;20.00;39.00;;;;;;5026007;28;20483;-88
2021/04/21 10:33:09;;;;;;;14.77;13.27;;;20.20;39.50;;;;;;5031154;28;20192;-87
2021/04/21 10:35:34;;;;;;;14.50;13.10;;;20.00;38.70;;;;;;5027644;28;20728;-88
2021/04/21 10:38:00;;;;;;;15.43;13.93;;;20.30;36.90;;;;;;5032129;28;20208;-86
2021/04/21 10:40:29;;;;;;;15.68;13.75;;;20.50;35.30;;;;;;5033392;28;20181;-86
2021/04/21 10:43:03;;;;;;;15.93;14.50;;;20.90;34.10;;;;;;5030646;28;20186;-87
2021/04/21 10:45:30;;;;;;;14.90;13.40;;;20.90;33.90;;;;;;5027981;28;20295;-86
2021/04/21 10:47:58;;;;;;;13.90;12.60;;;20.90;34.60;;;;;;5028843;28;20216;-85
2021/04/21 10:50:42;;;;;;;14.77;13.55;;;21.00;34.90;;;;;;5028568;28;20635;-86
2021/04/21 10:53:29;;;;;;;14.60;13.30;;;21.00;35.60;;;;;;5026967;28;20178;-87
2021/04/21 10:55:55;;;;;;;15.07;13.57;;;21.20;33.90;;;;;;5031886;28;20255;-85
2021/04/21 10:58:21;;;;;;;14.25;12.85;;;21.30;33.30;;;;;;5030638;28;20287;-86
2021/04/21 11:00:48;;;;;;;14.57;13.15;;;21.10;33.30;;;;;;5033175;28;20313;-86
2021/04/21 11:03:26;;;;;;;12.82;11.73;;;21.20;33.00;;;;;;5032466;28;20188;-87
2021/04/21 11:06:00;;;;;;;12.65;11.55;;;21.30;33.60;;;;;;5031682;28;20209;-86
2021/04/21 11:08:30;;;;;;;8.93;8.23;;;21.20;32.00;;;;;;5032877;28;20276;-87
2021/04/21 11:11:02;;;;;;;9.43;8.52;;;21.40;29.80;;;;;;5014751;28;20217;-86
2021/04/21 11:13:38;;;;;;;10.07;9.18;;;21.80;31.20;;;;;;5031998;28;20198;-86
2021/04/21 11:16:21;;;;;;;13.05;11.75;;;22.10;29.90;;;;;;5027133;28;20738;-86
2021/04/21 11:18:47;;;;;;;11.95;10.77;;;21.90;30.50;;;;;;5031792;28;20211;-88
2021/04/21 11:21:18;;;;;;;12.40;11.25;;;21.50;31.00;;;;;;5033020;28;20189;-85
2021/04/21 11:24:14;;;;;;;10.88;9.82;;;21.20;32.90;;;;;;5033848;28;21721;-87
2021/04/21 11:26:46;;;;;;;12.65;10.90;;;21.00;32.40;;;;;;5012336;28;20251;-87
2021/04/21 11:29:27;;;;;;;12.35;11.15;;;21.20;32.20;;;;;;5031087;28;20307;-88
2021/04/21 11:31:53;;;;;;;12.07;10.40;;;21.60;31.70;;;;;;5032816;28;20206;-85
2021/04/21 11:34:32;;;;;;;11.65;10.65;;;22.00;30.70;;;;;;5029395;28;20214;-86
2021/04/21 11:37:12;;;;;;;12.80;11.43;;;22.30;30.60;;;;;;5030814;28;20689;-85
2021/04/21 11:39:44;;;;;;;12.80;11.70;;;22.30;31.20;;;;;;5031622;28;20434;-86
2021/04/21 11:42:40;;;;;;;12.50;11.40;;;23.00;30.00;;;;;;5028503;28;20196;-87
2021/04/21 11:45:06;;;;;;;19.73;11.95;;;23.30;29.30;;;;;;5033626;28;20715;-86
2021/04/21 11:47:45;;;;;;;12.32;11.15;;;23.40;29.20;;;;;;5035579;28;20215;-86
2021/04/21 11:50:17;;;;;;;12.30;11.30;;;23.60;29.20;;;;;;5031771;28;20184;-86
2021/04/21 11:53:01;;;;;;;12.48;11.38;;;24.00;28.90;;;;;;5030546;28;21069;-86
2021/04/21 11:55:57;;;;;;;6.78;6.18;;;24.50;27.90;;;;;;5034645;28;20203;-86
2021/04/21 11:58:40;;;;;;;8.32;7.68;;;24.30;26.40;;;;;;5032350;28;20331;-86
2021/04/21 12:01:11;;;;;;;10.98;9.98;;;24.10;27.00;;;;;;5035434;28;20212;-86
2021/04/21 12:03:43;;;;;;;9.98;9.02;;;23.10;28.10;;;;;;5030565;28;20189;-85
2021/04/21 12:06:15;;;;;;;10.40;8.90;;;22.50;28.30;;;;;;5041381;28;20366;-86
2021/04/21 12:08:47;;;;;;;8.98;8.25;;;22.10;29.20;;;;;;5050985;28;20189;-86
2021/04/21 12:11:13;;;;;;;9.43;8.63;;;21.90;29.30;;;;;;5049945;28;20261;-86
2021/04/21 12:13:42;;;;;;;9.13;8.32;;;21.80;28.80;;;;;;5053571;28;20177;-86
2021/04/21 12:16:09;;;;;;;8.95;7.88;;;21.80;29.40;;;;;;5051853;28;20185;-86
2021/04/21 12:18:43;;;;;;;10.27;9.38;;;22.10;30.20;;;;;;5041695;28;20239;-86
2021/04/21 12:21:17;;;;;;;8.80;8.10;;;22.30;28.60;;;;;;5037240;28;20183;-87
2021/04/21 12:23:45;;;;;;;9.05;8.23;;;21.90;29.40;;;;;;5031401;28;20236;-86
2021/04/21 12:26:26;;;;;;;8.55;7.80;;;21.80;28.20;;;;;;5030374;28;20647;-88
2021/04/21 12:29:11;;;;;;;8.77;7.97;;;21.70;28.50;;;;;;5034522;28;20211;-87
2021/04/21 12:31:37;;;;;;;8.45;7.65;;;22.00;28.10;;;;;;5032871;28;21007;-87
2021/04/21 12:34:05;;;;;;;9.20;8.30;;;22.60;27.10;;;;;;5042330;28;20172;-85
2021/04/21 12:36:36;;;;;;;14.75;9.52;;;23.00;27.00;;;;;;5048994;28;20208;-85
2021/04/21 12:39:09;;;;;;;25.88;10.40;;;23.50;26.80;;;;;;5054513;28;20300;-86
2021/04/21 12:41:37;;;;;;;9.35;8.55;;;24.00;27.00;;;;;;5052217;28;20240;-86
2021/04/21 12:44:12;;;;;;;15.73;8.57;;;24.40;26.40;;;;;;5051034;28;20211;-86
2021/04/21 12:46:39;;;;;;;7.93;7.32;;;23.90;26.50;;;;;;5033490;28;20268;-86
2021/04/21 12:49:05;;;;;;;7.45;6.75;;;24.30;26.70;;;;;;5035238;28;20224;-86
2021/04/21 12:51:32;;;;;;;8.82;7.38;;;24.70;26.60;;;;;;5032820;28;20185;-86
2021/04/21 12:54:01;;;;;;;7.82;7.22;;;25.20;25.50;;;;;;5028820;28;20193;-86
2021/04/21 12:56:41;;;;;;;6.60;6.10;;;25.20;25.00;;;;;;5030360;28;20616;-86
2021/04/21 12:59:17;;;;;;;7.55;6.88;;;25.70;25.30;;;;;;5030165;28;20561;-86
2021/04/21 13:01:44;;;;;;;6.97;6.38;;;25.80;24.00;;;;;;5031371;28;20188;-86
2021/04/21 13:04:16;;;;;;;8.70;7.13;;;25.80;24.10;;;;;;5033174;28;20181;-86
2021/04/21 13:06:44;;;;;;;7.97;7.32;;;26.30;24.00;;;;;;5034058;28;20201;-86
2021/04/21 13:09:18;;;;;;;12.60;8.55;;;26.60;24.20;;;;;;5032452;28;20208;-86
2021/04/21 13:11:49;;;;;;;10.02;9.23;;;26.50;25.00;;;;;;5032342;28;20187;-86
2021/04/21 13:14:16;;;;;;;8.77;8.07;;;25.50;24.40;;;;;;5033694;28;20872;-86
2021/04/21 13:16:50;;;;;;;9.82;9.02;;;25.20;25.70;;;;;;5030565;28;20288;-85